Time;durP1;ratioP1;P1;durP2;ratioP2;P2;SDS_P1;SDS_P2;PMS_P1;PMS_P2;Temp;Humidity;BMP_temperature;BMP_pressure;BME280_temperature;BME280_humidity;BME280_pressure;Samples;Min_cycle;Max_cycle;Signal;HPM_P1;HPM_P2
2023/09/01 00:01:35;;;;;;;6.93;2.88;;;;;;;15.79;94.54;101161.81;5085342;28;20730;-76
2023/09/01 00:04:01;;;;;;;8.23;3.15;;;;;;;15.78;94.63;101164.53;5091476;28;20127;-76
2023/09/01 00:06:26;;;;;;;5.15;2.78;;;;;;;15.78;94.83;101170.66;5093208;28;20058;-76
2023/09/01 00:08:51;;;;;;;3.42;2.92;;;;;;;15.76;94.68;101161.13;5089206;28;20058;-76
2023/09/01 00:11:17;;;;;;;5.60;3.45;;;;;;;15.75;94.85;101162.91;5087389;28;20028;-76
2023/09/01 00:13:43;;;;;;;4.30;2.78;;;;;;;15.73;94.92;101156.81;5087357;28;20058;-76
2023/09/01 00:16:08;;;;;;;3.30;2.83;;;;;;;15.73;94.57;101154.19;5094829;28;20327;-76
2023/09/01 00:18:34;;;;;;;7.03;3.28;;;;;;;15.73;94.61;101159.47;5086931;28;20036;-76
2023/09/01 00:21:01;;;;;;;3.75;3.00;;;;;;;15.71;94.57;101146.34;5090656;28;20125;-76
2023/09/01 00:23:27;;;;;;;4.57;2.90;;;;;;;15.71;94.76;101158.72;5090240;28;20036;-76
2023/09/01 00:25:54;;;;;;;5.63;2.55;;;;;;;15.71;94.62;101166.63;5076500;28;20016;-76
2023/09/01 00:28:19;;;;;;;3.40;2.65;;;;;;;15.70;94.52;101168.44;5093571;28;20035;-76
2023/09/01 00:30:59;;;;;;;4.28;2.90;;;;;;;15.69;94.44;101177.28;5093890;28;20063;-76
2023/09/01 00:33:28;;;;;;;3.65;2.63;;;;;;;15.69;94.37;101168.50;5092902;28;20055;-76
2023/09/01 00:35:55;;;;;;;4.28;2.65;;;;;;;15.68;94.37;101175.59;5087579;28;20084;-76
2023/09/01 00:38:20;;;;;;;4.35;2.92;;;;;;;15.67;94.22;101170.41;5085718;28;20027;-76
2023/09/01 00:40:49;;;;;;;4.30;2.97;;;;;;;15.66;94.26;101173.97;5092940;28;20039;-76
2023/09/01 00:43:15;;;;;;;4.30;3.05;;;;;;;15.66;94.32;101171.31;5091817;28;20042;-76
2023/09/01 00:45:41;;;;;;;5.00;3.10;;;;;;;15.65;94.26;101165.19;5093187;28;20039;-76
2023/09/01 00:48:08;;;;;;;5.20;3.30;;;;;;;15.64;94.57;101163.47;5094347;28;20081;-76
2023/09/01 00:50:36;;;;;;;3.95;3.00;;;;;;;15.64;94.47;101162.63;5094028;28;20046;-76
2023/09/01 00:53:02;;;;;;;4.07;2.80;;;;;;;15.63;94.57;101160.94;5094138;28;20040;-76
2023/09/01 00:55:29;;;;;;;7.35;3.35;;;;;;;15.63;94.61;101155.69;5092479;28;20036;-76
2023/09/01 00:57:54;;;;;;;5.22;3.28;;;;;;;15.62;95.01;101160.06;5093778;28;20286;-76
2023/09/01 01:00:19;;;;;;;7.20;3.30;;;;;;;15.62;94.70;101151.31;5088695;28;20032;-76
2023/09/01 01:02:46;;;;;;;6.13;3.10;;;;;;;15.62;94.71;101152.16;5075483;28;20046;-76
2023/09/01 01:05:15;;;;;;;3.00;2.60;;;;;;;15.60;94.46;101153.19;5091725;28;20039;-76
2023/09/01 01:08:02;;;;;;;5.47;3.10;;;;;;;15.60;94.44;101158.47;5093274;28;20051;-76
2023/09/01 01:10:38;;;;;;;6.80;3.78;;;;;;;15.59;94.79;101162.91;5088996;28;20036;-76
2023/09/01 01:13:10;;;;;;;3.92;3.13;;;;;;;15.58;94.84;101160.34;5091514;28;20052;-76
2023/09/01 01:15:38;;;;;;;5.65;3.80;;;;;;;15.58;94.94;101163.00;5082731;28;20047;-76
2023/09/01 01:18:07;;;;;;;6.47;3.15;;;;;;;15.58;94.93;101165.63;5092711;28;20085;-76
2023/09/01 01:20:38;;;;;;;6.20;3.33;;;;;;;15.57;94.89;101167.41;5089583;28;20039;-76
2023/09/01 01:23:09;;;;;;;4.25;3.20;;;;;;;15.55;94.98;101167.50;5093517;28;20051;-76
2023/09/01 01:25:35;;;;;;;3.50;2.88;;;;;;;15.55;95.20;101166.63;5088853;28;20027;-76
2023/09/01 01:28:07;;;;;;;4.25;3.05;;;;;;;15.54;95.40;101171.06;5094136;28;20313;-76
2023/09/01 01:30:33;;;;;;;6.78;2.78;;;;;;;15.54;95.68;101167.59;5093452;28;20055;-76
2023/09/01 01:32:58;;;;;;;5.43;3.13;;;;;;;15.53;95.47;101158.84;5094243;28;20346;-76
2023/09/01 01:35:32;;;;;;;7.93;3.58;;;;;;;15.54;95.43;101157.03;5092830;28;20020;-76
2023/09/01 01:38:08;;;;;;;4.97;3.30;;;;;;;15.53;95.75;101160.59;5094198;28;20089;-76
2023/09/01 01:40:37;;;;;;;6.82;3.75;;;;;;;15.52;95.71;101162.41;5092448;28;20035;-76
2023/09/01 01:43:07;;;;;;;5.03;3.50;;;;;;;15.52;95.91;101158.91;5093873;28;20296;-76
2023/09/01 01:45:34;;;;;;;5.93;3.60;;;;;;;15.51;95.96;101151.91;5086236;28;20024;-76
2023/09/01 01:48:00;;;;;;;4.78;3.15;;;;;;;15.51;95.93;101170.41;5094032;28;20031;-76
2023/09/01 01:50:25;;;;;;;5.07;3.60;;;;;;;15.50;96.21;101156.34;5091938;28;20080;-76
2023/09/01 01:52:50;;;;;;;6.35;3.35;;;;;;;15.50;95.97;101161.63;5087707;28;20059;-76
2023/09/01 01:55:16;;;;;;;6.70;3.40;;;;;;;15.49;96.12;101161.72;5094767;28;20253;-76
2023/09/01 01:57:41;;;;;;;5.65;3.80;;;;;;;15.49;96.30;101154.66;5096831;28;20400;-76
2023/09/01 02:00:11;;;;;;;7.55;3.72;;;;;;;15.49;96.38;101153.81;5096943;28;20073;-76
2023/09/01 02:02:39;;;;;;;5.35;3.58;;;;;;;15.47;96.20;101148.59;5097020;28;20390;-76
2023/09/01 02:05:08;;;;;;;9.95;3.60;;;;;;;15.48;96.36;101149.44;5096722;28;20267;-76
2023/09/01 02:07:34;;;;;;;6.90;3.40;;;;;;;15.47;96.24;101143.31;5096618;28;20031;-76
2023/09/01 02:10:00;;;;;;;5.57;3.40;;;;;;;15.47;96.26;101147.75;5094313;28;20100;-76
2023/09/01 02:12:25;;;;;;;3.28;2.97;;;;;;;15.47;95.89;101151.25;5097051;28;20035;-76
2023/09/01 02:14:51;;;;;;;7.18;3.13;;;;;;;15.46;95.98;101146.91;5095402;28;20243;-76
2023/09/01 02:17:16;;;;;;;5.20;3.30;;;;;;;15.46;96.04;101146.91;5097167;28;20093;-76
2023/09/01 02:19:41;;;;;;;4.95;3.13;;;;;;;15.46;96.23;101159.25;5096724;28;20040;-76
2023/09/01 02:22:07;;;;;;;6.22;3.58;;;;;;;15.45;96.49;101161.03;5096719;28;20038;-76
2023/09/01 02:24:33;;;;;;;5.78;3.72;;;;;;;15.44;96.40;101161.97;5095186;28;20031;-76
2023/09/01 02:26:58;;;;;;;6.07;4.28;;;;;;;15.44;96.42;101155.84;5097332;28;20024;-76
2023/09/01 02:29:24;;;;;;;6.95;3.83;;;;;;;15.44;96.57;101155.84;5073110;28;20111;-76
2023/09/01 02:31:49;;;;;;;5.85;3.75;;;;;;;15.42;96.44;101149.81;5097271;28;20036;-76
2023/09/01 02:34:15;;;;;;;6.53;3.70;;;;;;;15.43;96.72;101147.09;5096009;28;20085;-76
2023/09/01 02:36:40;;;;;;;7.10;4.00;;;;;;;15.41;96.78;101143.69;5073247;28;20036;-76
2023/09/01 02:39:06;;;;;;;4.30;3.20;;;;;;;15.41;96.64;101135.75;5097195;28;20476;-76
2023/09/01 02:41:32;;;;;;;4.72;3.55;;;;;;;15.41;96.47;101141.03;5095817;28;20430;-76
2023/09/01 02:43:58;;;;;;;8.65;4.60;;;;;;;15.41;96.48;101134.91;5093903;28;20119;-76
2023/09/01 02:46:23;;;;;;;5.32;3.70;;;;;;;15.41;96.49;101132.25;5095656;28;20377;-76
2023/09/01 02:48:52;;;;;;;5.82;4.10;;;;;;;15.41;96.63;101127.84;5096686;28;20036;-76
2023/09/01 02:51:17;;;;;;;5.00;3.85;;;;;;;15.40;96.54;101133.22;5095719;28;20367;-76
2023/09/01 02:53:43;;;;;;;5.60;3.80;;;;;;;15.40;96.26;101125.28;5095480;28;20096;-76
2023/09/01 02:56:08;;;;;;;5.57;4.22;;;;;;;15.39;96.41;101127.09;5097765;28;20046;-74
2023/09/01 02:58:34;;;;;;;10.65;4.20;;;;;;;15.39;96.65;101135.00;5096658;28;20024;-76
2023/09/01 03:01:08;;;;;;;4.93;3.65;;;;;;;15.39;96.52;101131.50;5092252;28;20100;-76
2023/09/01 03:03:37;;;;;;;5.03;3.72;;;;;;;15.39;96.78;101127.09;5095605;28;20028;-76
2023/09/01 03:06:05;;;;;;;7.15;4.05;;;;;;;15.37;96.89;101123.66;5087947;28;20235;-76
2023/09/01 03:08:31;;;;;;;7.95;4.40;;;;;;;15.36;97.18;101122.81;5089578;28;20035;-76
2023/09/01 03:10:56;;;;;;;4.90;3.67;;;;;;;15.36;97.19;101133.38;5094532;28;20036;-76
2023/09/01 03:13:22;;;;;;;7.03;3.90;;;;;;;15.35;97.23;101133.44;5087314;28;20038;-76
2023/09/01 03:15:47;;;;;;;6.07;4.10;;;;;;;15.36;97.18;101130.72;5095322;28;20059;-76
2023/09/01 03:18:13;;;;;;;4.03;3.67;;;;;;;15.36;97.61;101132.53;5096134;28;20260;-76
2023/09/01 03:20:39;;;;;;;8.68;4.15;;;;;;;15.35;97.24;101136.09;5094017;28;20043;-76
2023/09/01 03:23:05;;;;;;;7.90;4.63;;;;;;;15.34;97.68;101134.41;5096105;28;20085;-76
2023/09/01 03:25:30;;;;;;;7.78;4.43;;;;;;;15.34;98.04;101131.78;5094492;28;20040;-76
2023/09/01 03:27:55;;;;;;;5.15;4.00;;;;;;;15.33;98.03;101133.56;5095841;28;20036;-76
2023/09/01 03:30:21;;;;;;;6.70;4.47;;;;;;;15.33;97.99;101130.06;5094657;28;20031;-76
2023/09/01 03:32:46;;;;;;;4.25;3.83;;;;;;;15.33;97.83;101122.13;5095434;28;20036;-76
2023/09/01 03:35:11;;;;;;;5.68;4.00;;;;;;;15.32;98.02;101117.81;5075382;28;20043;-76
2023/09/01 03:37:37;;;;;;;4.53;3.85;;;;;;;15.32;98.24;101117.81;5087478;28;20080;-76
2023/09/01 03:40:09;;;;;;;6.28;3.75;;;;;;;15.32;97.83;101123.09;5093649;28;20331;-76
2023/09/01 03:42:36;;;;;;;8.70;4.60;;;;;;;15.31;97.99;101124.00;5086888;28;20330;-76
2023/09/01 03:45:01;;;;;;;6.55;3.63;;;;;;;15.30;97.84;101130.25;5087281;28;20085;-76
2023/09/01 03:47:27;;;;;;;10.70;4.90;;;;;;;15.30;97.67;101127.59;5089020;28;20213;-76
2023/09/01 03:49:52;;;;;;;6.30;4.05;;;;;;;15.30;97.87;101124.97;5077102;28;20046;-76
2023/09/01 03:52:18;;;;;;;4.95;3.40;;;;;;;15.29;97.84;101123.25;5094327;28;20036;-76
2023/09/01 03:54:43;;;;;;;8.05;4.32;;;;;;;15.29;97.89;101123.25;5075507;28;20105;-76
2023/09/01 03:57:09;;;;;;;6.47;4.15;;;;;;;15.28;97.76;101116.25;5094299;28;20043;-76
2023/09/01 03:59:34;;;;;;;4.40;3.90;;;;;;;15.28;97.78;101124.19;5094989;28;20138;-76
2023/09/01 04:02:00;;;;;;;4.95;3.88;;;;;;;15.29;97.79;101116.19;5094223;28;20343;-76
2023/09/01 04:04:25;;;;;;;6.90;4.07;;;;;;;15.28;97.82;101116.25;5093780;28;20343;-76
2023/09/01 04:06:50;;;;;;;5.07;4.38;;;;;;;15.28;97.71;101114.50;5092042;28;20060;-76
2023/09/01 04:09:16;;;;;;;5.68;4.18;;;;;;;15.28;97.65;101108.34;5075355;28;20407;-76
2023/09/01 04:11:41;;;;;;;4.68;3.95;;;;;;;15.27;97.80;101119.84;5094294;28;20044;-76
2023/09/01 04:14:09;;;;;;;6.88;4.38;;;;;;;15.27;97.95;101109.31;5095731;28;20031;-76
2023/09/01 04:16:34;;;;;;;6.88;4.47;;;;;;;15.26;98.10;101112.84;5089212;28;20028;-76
2023/09/01 04:18:59;;;;;;;4.78;3.95;;;;;;;15.25;98.34;101111.19;5057419;28;20435;-76
2023/09/01 04:21:25;;;;;;;6.57;4.32;;;;;;;15.26;98.34;101120.78;5090559;28;20084;-76
2023/09/01 04:23:50;;;;;;;5.15;4.07;;;;;;;15.26;98.22;101112.84;5076774;28;20040;-76
2023/09/01 04:26:16;;;;;;;6.97;4.53;;;;;;;15.25;98.55;101112.03;5093749;28;20035;-76
2023/09/01 04:28:41;;;;;;;4.82;3.95;;;;;;;15.25;98.23;101119.94;5075124;28;20331;-76
2023/09/01 04:31:16;;;;;;;5.45;4.40;;;;;;;15.27;98.45;101109.31;5069613;28;20276;-76
2023/09/01 04:33:41;;;;;;;4.60;3.45;;;;;;;15.25;98.52;101112.03;5074955;28;20059;-76
2023/09/01 04:36:06;;;;;;;8.43;4.18;;;;;;;15.25;98.32;101108.53;5068777;28;20040;-76
2023/09/01 04:38:32;;;;;;;5.22;4.40;;;;;;;15.25;98.48;101104.09;5081717;28;20107;-76
2023/09/01 04:40:58;;;;;;;6.28;4.43;;;;;;;15.25;98.11;101111.19;5082505;28;20130;-76
2023/09/01 04:43:25;;;;;;;5.15;3.50;;;;;;;15.25;98.18;101112.03;5078838;28;20346;-76
2023/09/01 04:45:55;;;;;;;4.22;3.60;;;;;;;15.25;98.21;101114.66;5094684;28;20061;-76
2023/09/01 04:48:21;;;;;;;6.38;5.10;;;;;;;15.26;98.27;101118.13;5092484;28;20044;-76
2023/09/01 04:50:47;;;;;;;5.38;4.35;;;;;;;15.25;98.31;101117.28;5094592;28;20066;-76
2023/09/01 04:53:12;;;;;;;5.43;4.47;;;;;;;15.25;97.85;101119.94;5083495;28;20043;-76
2023/09/01 04:55:38;;;;;;;4.80;4.28;;;;;;;15.24;97.97;101122.66;5093581;28;20044;-76
2023/09/01 04:58:03;;;;;;;5.18;4.45;;;;;;;15.24;98.20;101127.94;5092939;28;20046;-76
2023/09/01 05:00:29;;;;;;;7.13;4.57;;;;;;;15.24;98.31;101122.66;5093476;28;20036;-76
2023/09/01 05:02:54;;;;;;;6.28;5.65;;;;;;;15.24;98.33;101125.28;5092628;28;20046;-76
2023/09/01 05:05:19;;;;;;;5.28;4.78;;;;;;;15.24;98.12;101120.84;5093493;28;20115;-76
2023/09/01 05:07:45;;;;;;;6.65;4.88;;;;;;;15.24;98.22;101112.09;5092939;28;20488;-76
2023/09/01 05:10:10;;;;;;;7.65;5.25;;;;;;;15.24;98.42;101106.81;5094317;28;20036;-76
2023/09/01 05:12:36;;;;;;;4.55;3.90;;;;;;;15.23;98.40;101116.53;5088423;28;20115;-76
2023/09/01 05:15:03;;;;;;;6.00;4.50;;;;;;;15.23;98.23;101113.91;5091881;28;20059;-76
2023/09/01 05:17:29;;;;;;;6.30;4.75;;;;;;;15.23;98.16;101110.41;5086916;28;20270;-76
2023/09/01 05:19:54;;;;;;;9.30;5.28;;;;;;;15.23;98.23;101120.97;5087788;28;20035;-76
2023/09/01 05:22:20;;;;;;;5.85;5.25;;;;;;;15.23;98.14;101128.88;5086578;28;20415;-76
2023/09/01 05:24:47;;;;;;;6.95;4.20;;;;;;;15.22;98.64;101125.38;5067160;28;20031;-76
2023/09/01 05:27:13;;;;;;;5.75;5.32;;;;;;;15.23;98.50;101126.25;5090662;28;20032;-76
2023/09/01 05:29:38;;;;;;;8.27;5.15;;;;;;;15.23;98.57;101134.16;5097727;28;20026;-76
2023/09/01 05:32:03;;;;;;;5.25;4.70;;;;;;;15.22;98.59;101130.66;5070429;28;20067;-76
2023/09/01 05:34:29;;;;;;;4.78;4.32;;;;;;;15.22;98.57;101120.09;5089514;28;20042;-76
2023/09/01 05:36:56;;;;;;;7.47;4.90;;;;;;;15.23;98.67;101126.25;5084600;28;20036;-76
2023/09/01 05:39:22;;;;;;;10.60;5.50;;;;;;;15.23;98.43;101123.59;5086163;28;20307;-76
2023/09/01 05:41:47;;;;;;;5.97;4.78;;;;;;;15.23;98.51;101118.34;5088440;28;20123;-76
2023/09/01 05:44:12;;;;;;;9.23;5.72;;;;;;;15.22;98.40;101120.09;5092103;28;20096;-76
2023/09/01 05:46:38;;;;;;;5.75;4.40;;;;;;;15.22;98.56;101119.25;5097597;28;20040;-76
2023/09/01 05:49:03;;;;;;;8.88;5.30;;;;;;;15.22;98.74;101111.34;5075251;28;20032;-76
2023/09/01 05:51:29;;;;;;;5.50;5.00;;;;;;;15.23;98.58;101118.34;5094384;28;20211;-76
2023/09/01 05:53:54;;;;;;;6.65;4.70;;;;;;;15.21;98.75;101128.09;5086289;28;20036;-76
2023/09/01 05:56:19;;;;;;;9.38;5.47;;;;;;;15.21;98.78;101126.31;5083764;28;20331;-76
2023/09/01 05:58:45;;;;;;;10.15;6.43;;;;;;;15.21;98.74;101134.25;5087509;28;20046;-76
2023/09/01 06:01:10;;;;;;;6.20;4.72;;;;;;;15.21;99.20;101131.59;5086217;28;20039;-76
2023/09/01 06:03:36;;;;;;;6.28;5.43;;;;;;;15.21;99.03;101130.72;5088165;28;20036;-76
2023/09/01 06:06:01;;;;;;;7.82;4.97;;;;;;;15.21;99.16;101131.59;5097182;28;20089;-76
2023/09/01 06:08:26;;;;;;;5.40;4.90;;;;;;;15.21;99.36;101131.59;5096711;28;20054;-76
2023/09/01 06:11:05;;;;;;;7.13;5.47;;;;;;;15.22;99.28;101132.44;5084395;28;20051;-76
2023/09/01 06:13:30;;;;;;;6.07;4.95;;;;;;;15.22;98.99;101137.72;5086290;28;20334;-76
2023/09/01 06:15:56;;;;;;;7.05;5.38;;;;;;;15.22;99.31;101132.44;5090418;28;20036;-76
2023/09/01 06:18:21;;;;;;;6.22;4.70;;;;;;;15.21;99.21;101134.25;5096582;28;20099;-76
2023/09/01 06:20:46;;;;;;;10.20;5.45;;;;;;;15.23;99.13;101134.16;5097133;28;20028;-76
2023/09/01 06:23:12;;;;;;;6.20;4.85;;;;;;;15.22;99.38;101129.81;5097596;28;20056;-76
2023/09/01 06:25:37;;;;;;;6.97;4.47;;;;;;;15.24;99.25;101135.84;5078977;28;20024;-76
2023/09/01 06:28:03;;;;;;;5.55;4.47;;;;;;;15.24;99.28;101139.31;5087731;28;20036;-76
2023/09/01 06:30:29;;;;;;;5.07;4.63;;;;;;;15.24;99.09;101141.97;5092013;28;20193;-76
2023/09/01 06:32:54;;;;;;;6.63;4.90;;;;;;;15.25;99.24;101148.13;5096490;28;20039;-76
2023/09/01 06:35:19;;;;;;;7.03;4.38;;;;;;;15.25;99.50;101145.47;5079614;28;20032;-76
2023/09/01 06:37:45;;;;;;;6.25;5.00;;;;;;;15.25;99.46;101142.84;5092999;28;20081;-76
2023/09/01 06:40:11;;;;;;;5.32;4.82;;;;;;;15.25;99.40;101148.97;5094519;28;20039;-76
2023/09/01 06:42:36;;;;;;;5.40;4.90;;;;;;;15.25;99.53;101150.75;5094599;28;20102;-76
2023/09/01 06:45:03;;;;;;;6.22;5.40;;;;;;;15.26;99.54;101155.06;5082887;28;20052;-76
2023/09/01 06:47:28;;;;;;;7.25;5.03;;;;;;;15.26;99.52;101147.16;5086261;28;20081;-76
2023/09/01 06:49:54;;;;;;;4.68;3.92;;;;;;;15.25;99.71;101154.22;5077193;28;20060;-76
2023/09/01 06:52:19;;;;;;;8.25;5.45;;;;;;;15.26;99.88;101157.72;5084521;28;20378;-76
2023/09/01 06:54:44;;;;;;;6.30;5.20;;;;;;;15.25;99.87;101156.88;5087842;28;20082;-76
2023/09/01 06:57:10;;;;;;;5.80;4.38;;;;;;;15.26;99.63;101157.72;5084429;28;20028;-76
2023/09/01 06:59:35;;;;;;;4.15;3.78;;;;;;;15.26;99.82;101150.66;5085123;28;20883;-76
2023/09/01 07:02:00;;;;;;;5.97;5.38;;;;;;;15.26;99.90;101148.03;5086016;28;20028;-76
2023/09/01 07:04:26;;;;;;;4.45;4.05;;;;;;;15.26;100.00;101145.41;5085515;28;20066;-76
2023/09/01 07:06:51;;;;;;;5.95;5.35;;;;;;;15.27;99.96;101147.06;5084196;28;20035;-76
2023/09/01 07:09:16;;;;;;;5.43;4.60;;;;;;;15.28;99.54;101145.28;5083883;28;20374;-76
2023/09/01 07:11:42;;;;;;;7.93;4.75;;;;;;;15.28;99.53;101137.38;5084579;28;20067;-76
2023/09/01 07:14:07;;;;;;;8.02;5.63;;;;;;;15.28;99.80;101134.72;5084919;28;20037;-76
2023/09/01 07:16:33;;;;;;;5.90;5.15;;;;;;;15.29;99.48;101139.09;5087899;28;20023;-76
2023/09/01 07:18:58;;;;;;;5.05;4.53;;;;;;;15.29;99.82;101136.44;5086291;28;20044;-76
2023/09/01 07:21:24;;;;;;;8.40;5.90;;;;;;;15.29;99.68;101136.44;5084652;28;20040;-76
2023/09/01 07:23:49;;;;;;;6.38;4.97;;;;;;;15.28;99.93;101135.59;5085819;28;20055;-76
2023/09/01 07:26:15;;;;;;;13.35;6.60;;;;;;;15.29;99.88;101132.00;5085346;28;20020;-76
2023/09/01 07:28:40;;;;;;;9.07;6.38;;;;;;;15.28;100.00;101127.69;5083852;28;20043;-76
2023/09/01 07:31:15;;;;;;;12.75;7.38;;;;;;;15.29;100.00;101126.72;5083454;28;20129;-76
2023/09/01 07:33:41;;;;;;;9.55;5.68;;;;;;;15.29;100.00;101131.16;5084148;28;20351;-76
2023/09/01 07:36:10;;;;;;;9.68;5.80;;;;;;;15.29;100.00;101128.53;5087369;28;20288;-76
2023/09/01 07:38:35;;;;;;;8.90;5.65;;;;;;;15.29;100.00;101128.53;5083392;28;20047;-76
2023/09/01 07:41:01;;;;;;;7.43;5.00;;;;;;;15.29;100.00;101139.94;5083999;28;20362;-76
2023/09/01 07:43:26;;;;;;;8.80;5.53;;;;;;;15.29;100.00;101139.09;5083124;28;20055;-76
2023/09/01 07:45:51;;;;;;;9.57;5.20;;;;;;;15.29;100.00;101136.44;5067442;28;20361;-76
2023/09/01 07:48:17;;;;;;;10.07;4.50;;;;;;;15.29;100.00;101133.81;5083640;28;20359;-76
2023/09/01 07:50:42;;;;;;;5.43;4.57;;;;;;;15.30;100.00;101143.44;5082984;28;20062;-76
2023/09/01 07:53:07;;;;;;;8.63;5.72;;;;;;;15.31;100.00;101151.25;5083035;28;20118;-76
2023/09/01 07:55:33;;;;;;;7.03;5.18;;;;;;;15.32;100.00;101145.03;5082344;28;20052;-76
2023/09/01 07:57:59;;;;;;;5.72;5.07;;;;;;;15.33;100.00;101148.53;5084657;28;20036;-76
2023/09/01 08:00:25;;;;;;;8.13;5.13;;;;;;;15.33;100.00;101138.84;5086781;28;20075;-76
2023/09/01 08:02:50;;;;;;;7.00;5.03;;;;;;;15.34;100.00;101142.31;5083249;28;20090;-76
2023/09/01 08:05:16;;;;;;;6.32;4.55;;;;;;;15.35;100.00;101151.91;5087081;28;20223;-76
2023/09/01 08:07:42;;;;;;;5.75;4.55;;;;;;;15.34;100.00;101140.53;5094994;28;20048;-76
2023/09/01 08:10:10;;;;;;;6.60;4.90;;;;;;;15.37;100.00;101144.78;5066157;28;20055;-76
2023/09/01 08:12:35;;;;;;;4.43;4.03;;;;;;;15.38;100.00;101145.66;5087709;28;20028;-76
2023/09/01 08:15:00;;;;;;;5.72;4.50;;;;;;;15.38;100.00;101143.84;5093356;28;20051;-76
2023/09/01 08:17:26;;;;;;;6.28;5.05;;;;;;;15.39;100.00;101152.59;5081321;28;20038;-76
2023/09/01 08:19:51;;;;;;;7.13;4.25;;;;;;;15.40;100.00;101147.25;5085089;28;20043;-76
2023/09/01 08:22:17;;;;;;;4.75;4.35;;;;;;;15.40;100.00;101147.25;5081693;28;20481;-76
2023/09/01 08:24:45;;;;;;;8.95;4.50;;;;;;;15.43;100.00;101146.25;5066124;28;20035;-76
2023/09/01 08:27:11;;;;;;;5.75;4.75;;;;;;;15.43;100.00;101151.53;5080711;28;20028;-76
2023/09/01 08:29:38;;;;;;;8.68;5.65;;;;;;;15.43;100.00;101141.81;5082103;28;20086;-76
2023/09/01 08:32:05;;;;;;;7.25;4.80;;;;;;;15.44;100.00;101153.19;5083738;28;20066;-76
2023/09/01 08:34:31;;;;;;;7.57;5.10;;;;;;;15.44;100.00;101153.19;5084148;28;20341;-76
2023/09/01 08:36:56;;;;;;;7.45;5.22;;;;;;;15.45;100.00;101157.56;5083277;28;20024;-76
2023/09/01 08:39:22;;;;;;;6.25;4.35;;;;;;;15.44;100.00;101155.84;5083282;28;20043;-76
2023/09/01 08:41:50;;;;;;;9.60;5.47;;;;;;;15.45;100.00;101160.19;5083209;28;20275;-76
2023/09/01 08:44:20;;;;;;;7.37;5.40;;;;;;;15.44;100.00;101156.69;5080108;28;20024;-76
2023/09/01 08:46:46;;;;;;;7.60;4.93;;;;;;;15.44;100.00;101154.03;5084684;28;20024;-76
2023/09/01 08:49:11;;;;;;;5.20;4.68;;;;;;;15.46;100.00;101156.59;5072014;28;20032;-76
2023/09/01 08:51:40;;;;;;;5.78;5.15;;;;;;;15.46;100.00;101152.19;5080500;28;20051;-76
2023/09/01 08:54:10;;;;;;;6.38;5.65;;;;;;;15.48;100.00;101162.66;5084759;28;20086;-76
2023/09/01 08:56:36;;;;;;;7.30;5.80;;;;;;;15.48;100.00;101168.78;5080371;28;20107;-76
2023/09/01 08:59:01;;;;;;;5.97;4.93;;;;;;;15.49;100.00;101167.00;5088347;28;20511;-76
2023/09/01 09:01:27;;;;;;;5.18;4.50;;;;;;;15.50;100.00;101171.34;5083406;28;20043;-76
2023/09/01 09:03:53;;;;;;;7.93;5.53;;;;;;;15.51;100.00;101173.03;5082043;28;20315;-76
2023/09/01 09:06:31;;;;;;;11.43;6.15;;;;;;;15.52;100.00;101185.31;5082398;28;20119;-76
2023/09/01 09:09:14;;;;;;;6.82;5.78;;;;;;;15.51;100.00;101184.44;5082791;28;20019;-76
2023/09/01 09:11:59;;;;;;;6.38;4.60;;;;;;;15.54;100.00;101188.72;5081772;28;20048;-76
2023/09/01 09:14:27;;;;;;;6.15;5.20;;;;;;;15.53;100.00;101187.88;5083166;28;20027;-76
2023/09/01 09:16:57;;;;;;;12.20;5.60;;;;;;;15.54;100.00;101189.56;5084688;28;20023;-76
2023/09/01 09:19:23;;;;;;;6.90;5.97;;;;;;;15.55;100.00;101186.00;5085107;28;20040;-76
2023/09/01 09:22:03;;;;;;;5.38;4.82;;;;;;;15.55;100.00;101186.00;5084379;28;20250;-76
2023/09/01 09:24:36;;;;;;;8.70;6.22;;;;;;;15.57;100.00;101190.31;5083949;28;20055;-76
2023/09/01 09:27:03;;;;;;;10.43;5.47;;;;;;;15.58;100.00;101187.59;5082421;28;20262;-76
2023/09/01 09:29:37;;;;;;;8.82;6.65;;;;;;;15.59;100.00;101186.66;5080929;28;20039;-76
2023/09/01 09:32:15;;;;;;;5.30;4.85;;;;;;;15.61;100.00;101183.91;5082209;28;20239;-76
2023/09/01 09:34:40;;;;;;;11.15;6.30;;;;;;;15.61;100.00;101182.16;5078951;28;20059;-76
2023/09/01 09:37:16;;;;;;;8.77;6.97;;;;;;;15.62;100.00;101177.72;5082125;28;20028;-76
2023/09/01 09:39:43;;;;;;;10.80;6.97;;;;;;;15.64;100.00;101176.69;5081369;28;20346;-76
2023/09/01 09:42:08;;;;;;;9.88;6.93;;;;;;;15.65;100.00;101177.56;5084139;28;20379;-76
2023/09/01 09:44:34;;;;;;;9.30;7.70;;;;;;;15.67;100.00;101173.88;5080868;28;20037;-76
2023/09/01 09:47:10;;;;;;;9.23;7.50;;;;;;;15.69;100.00;101184.34;5084182;28;20252;-76
2023/09/01 09:49:37;;;;;;;9.10;8.20;;;;;;;15.72;100.00;101189.47;5078955;28;20023;-76
2023/09/01 09:52:07;;;;;;;10.65;7.05;;;;;;;15.74;100.00;101195.53;5082324;28;20023;-76
2023/09/01 09:54:36;;;;;;;8.55;7.43;;;;;;;15.76;100.00;101203.38;5079618;28;20259;-76
2023/09/01 09:57:06;;;;;;;7.60;6.80;;;;;;;15.77;100.00;101208.59;5080657;28;20043;-76
2023/09/01 09:59:38;;;;;;;8.90;6.57;;;;;;;15.79;100.00;101211.09;5080421;28;20044;-76
2023/09/01 10:02:09;;;;;;;6.88;6.10;;;;;;;15.80;100.00;101211.03;5084152;28;20411;-76
2023/09/01 10:04:35;;;;;;;7.00;6.40;;;;;;;15.80;100.00;101213.66;5085794;28;20043;-76
2023/09/01 10:07:00;;;;;;;7.57;6.80;;;;;;;15.82;100.00;101216.22;5083067;28;20024;-76
2023/09/01 10:09:27;;;;;;;7.78;7.00;;;;;;;15.83;100.00;101218.78;5085604;28;20036;-76
2023/09/01 10:11:53;;;;;;;7.93;7.22;;;;;;;15.85;100.00;101222.19;5077947;28;20050;-76
2023/09/01 10:14:22;;;;;;;9.60;7.63;;;;;;;15.85;100.00;101216.91;5078886;28;20047;-76
2023/09/01 10:16:49;;;;;;;7.47;6.70;;;;;;;15.88;100.00;101234.34;5076772;28;20032;-76
2023/09/01 10:19:17;;;;;;;8.00;6.45;;;;;;;15.88;100.00;101235.22;5089080;28;20261;-76
2023/09/01 10:21:44;;;;;;;7.75;7.03;;;;;;;15.89;100.00;101236.91;5088036;28;20412;-76
2023/09/01 10:24:16;;;;;;;7.72;6.80;;;;;;;15.91;100.00;101236.84;5095217;28;20048;-76
2023/09/01 10:26:43;;;;;;;7.93;7.13;;;;;;;15.91;100.00;101256.16;5088975;28;20221;-76
2023/09/01 10:29:10;;;;;;;7.25;6.55;;;;;;;15.92;100.00;101243.84;5090302;28;20077;-76
2023/09/01 10:31:36;;;;;;;8.45;6.57;;;;;;;15.93;100.00;101242.88;5085013;28;20034;-76
2023/09/01 10:34:15;;;;;;;7.32;6.32;;;;;;;15.95;100.00;101242.78;5095703;28;20359;-76
2023/09/01 10:36:45;;;;;;;7.47;6.78;;;;;;;15.96;100.00;101255.06;5089571;28;20036;-76
2023/09/01 10:39:16;;;;;;;7.00;6.30;;;;;;;15.97;100.00;101251.47;5091482;28;20039;-76
2023/09/01 10:42:02;;;;;;;6.93;6.40;;;;;;;15.99;100.00;101250.47;5082401;28;20032;-76
2023/09/01 10:44:39;;;;;;;6.70;6.10;;;;;;;16.01;100.00;101247.72;5094178;28;20352;-76
2023/09/01 10:47:33;;;;;;;6.53;6.05;;;;;;;16.02;100.00;101249.44;5088042;28;20366;-76
2023/09/01 10:50:00;;;;;;;8.13;7.32;;;;;;;16.03;100.00;101252.00;5087117;28;20043;-76
2023/09/01 10:52:28;;;;;;;8.68;7.03;;;;;;;16.05;100.00;101247.47;5088376;28;20032;-76
2023/09/01 10:55:05;;;;;;;7.97;7.18;;;;;;;16.07;100.00;101239.47;5092723;28;20067;-76
2023/09/01 10:57:45;;;;;;;11.43;7.50;;;;;;;16.10;100.00;101237.50;5078891;28;20024;-76
2023/09/01 11:00:31;;;;;;;7.57;6.78;;;;;;;16.15;100.00;101233.72;5088063;28;20028;-76
2023/09/01 11:03:31;;;;;;;7.68;6.85;;;;;;;16.19;100.00;101243.16;5091485;28;20103;-76
2023/09/01 11:05:57;;;;;;;8.60;6.75;;;;;;;16.21;100.00;101230.72;5092238;28;20388;-76
2023/09/01 11:08:25;;;;;;;7.65;6.95;;;;;;;16.24;100.00;101236.66;5092887;28;20078;-76
2023/09/01 11:10:51;;;;;;;7.60;6.90;;;;;;;16.28;100.00;101246.16;5088929;28;20087;-76
2023/09/01 11:13:18;;;;;;;8.40;7.07;;;;;;;16.33;100.00;101252.94;5089571;28;20209;-76
2023/09/01 11:15:49;;;;;;;6.95;6.45;;;;;;;16.35;100.00;101257.19;5083661;28;20403;-76
2023/09/01 11:18:19;;;;;;;7.15;6.55;;;;;;;16.37;100.00;101257.09;5091069;28;20122;-76
2023/09/01 11:20:46;;;;;;;6.88;6.28;;;;;;;16.38;100.00;101257.03;5091935;28;20043;-76
2023/09/01 11:23:11;;;;;;;8.35;6.57;;;;;;;16.40;100.00;101247.22;5086653;28;20055;-75